ADDS TAF Board (Experimental) INFO

IDs: Format: Expanded Condensed

Updated at: 0218 UTC 03 Sep 2014

KLAX - Los Angeles Intl, CA, US

Issued at 0101 UTC 03 Sep 2014
Time0204Z03/03Z03/04Z03/05Z03/06Z03/07Z03/08Z03/09Z03/10Z03/11Z03/12Z03/13Z03/14Z03/15Z
TypeOBSPRVL
  [TEMP]  
PRVLPRVLPRVLPRVLPRVLPRVLPRVLPRVLPRVLPRVLPRVLPRVL
VIS10>6>6>6>6>6>6>6>6>6>6>6>65
CIG----
  [12]  
121212121212121212121215
CoverSCTFEW
  [BKN]  
OVCOVCOVCOVCOVCOVCOVCOVCOVCOVCOVCOVC
FltCat--VFR
  [MVFR]  
MVFRMVFRMVFRMVFRMVFRMVFRMVFRMVFRMVFRMVFRMVFRMVFR
WX----
  [--]  
----------------------HZ
WDir260260
[260]
250250250250250250250250250250250250
WSpd1012
  [12]  
555555555556
WGst----
  [--]  
------------------------
R06/24
XWnd-1-1-1-1-1-1-1-1-1-1-1-1-1-1
XGst--0------------------------
HWnd-10-12-5-5-5-5-5-5-5-5-5-5-5-6
HGst--0------------------------
R07/25
XWnd-1-1-1-1-1-1-1-1-1-1-1-1-1-1
XGst--0------------------------
HWnd-10-12-5-5-5-5-5-5-5-5-5-5-5-6
HGst--0------------------------
Raw TAF
KLAX 030101Z 0301/0406 26012KT P6SM FEW020
  TEMPO 0301/0304 BKN012
  FM030400 25005KT P6SM OVC012
  FM031500 25006KT 5SM HZ OVC015
  FM032000 26009KT 6SM HZ BKN020
  FM032200 25012KT P6SM SCT025
  FM040300 26009KT P6SM OVC020


Raw METAR
KLAX 030204Z 26010KT 10SM SCT012 22/18 A2978 RMK AO2
KLAX 030153Z 27011KT 10SM BKN012 22/18 A2978 RMK AO2 SLP081 T02170178

TAF Board Legend

Hazard VFR MVFR IFR LIFR
Visibility (sm) >5 3≤X≤5 1≤X<3 <1
Ceiling (100 ft) >30 10≤X≤30 5≤X<10 <5
Wind Speed (kt) <10 10≤X<20 20≤X<30 ≥30
Wind Gust (kt) <15 15≤X<25 25≤X<35 ≥35
Weather No Wx Reported VCTS,-TS,-FZRA TS,FZRA +TS,+FZRA


Page loaded:  02:18 UTC  |   07:18 PM Pacific  |   08:18 PM Mountain  |   09:18 PM Central  |   10:18 PM Eastern

 

ADVISORIES

FORECASTS

FORECASTS

OBSERVATIONS

USER TOOLS

ABOUT US